createdAt,value
2022-10-15T00:01:42.604Z,11.43
2022-10-15T00:04:10.684Z,1.33
2022-10-15T00:06:38.691Z,0.73
2022-10-15T00:09:06.760Z,0.83
2022-10-15T00:11:35.662Z,1.53
2022-10-15T00:14:05.112Z,0.93
2022-10-15T00:16:34.613Z,1.03
2022-10-15T00:19:02.640Z,0.97
2022-10-15T00:21:30.923Z,0.80
2022-10-15T00:23:59.098Z,2.30
2022-10-15T00:26:28.280Z,0.80
2022-10-15T00:28:58.351Z,0.80
2022-10-15T00:31:29.077Z,1.10
2022-10-15T00:33:59.614Z,0.70
2022-10-15T00:36:29.671Z,0.70
2022-10-15T00:39:22.921Z,0.70
2022-10-15T00:41:50.907Z,1.03
2022-10-15T00:44:56.858Z,0.80
2022-10-15T00:47:29.625Z,0.80
2022-10-15T00:50:06.352Z,0.73
2022-10-15T00:52:40.834Z,0.80
2022-10-15T00:55:13.313Z,1.60
2022-10-15T00:57:42.047Z,0.73
2022-10-15T01:00:12.532Z,0.90
2022-10-15T01:02:42.349Z,0.80
2022-10-15T01:05:10.819Z,0.83
2022-10-15T01:07:41.282Z,0.70
2022-10-15T01:10:10.665Z,0.60
2022-10-15T01:12:58.862Z,0.80
2022-10-15T01:15:28.291Z,0.70
2022-10-15T01:18:00.890Z,0.97
2022-10-15T01:20:53.593Z,0.70
2022-10-15T01:23:58.356Z,1.03
2022-10-15T01:27:00.125Z,0.70
2022-10-15T01:29:41.175Z,1.20
2022-10-15T01:32:14.957Z,0.73
2022-10-15T01:34:49.281Z,0.70
2022-10-15T01:37:21.561Z,1.20
2022-10-15T01:39:53.954Z,0.63
2022-10-15T01:42:30.177Z,0.70
2022-10-15T01:45:00.476Z,0.80
2022-10-15T01:47:41.705Z,0.80
2022-10-15T01:50:10.916Z,0.73
2022-10-15T01:52:39.783Z,1.53
2022-10-15T01:55:11.562Z,0.70
2022-10-15T01:58:04.922Z,0.90
2022-10-15T02:00:33.007Z,0.70
2022-10-15T02:03:05.502Z,0.90
2022-10-15T02:05:36.624Z,0.60
2022-10-15T02:08:11.239Z,0.87
2022-10-15T02:13:34.585Z,0.87
2022-10-15T02:16:05.159Z,1.00
2022-10-15T02:18:40.387Z,0.70
2022-10-15T02:21:12.026Z,1.43
2022-10-15T02:23:43.341Z,1.13
2022-10-15T02:26:12.163Z,1.17
2022-10-15T02:28:43.991Z,0.90
2022-10-15T02:31:13.952Z,0.70
2022-10-15T02:33:45.660Z,0.80
2022-10-15T02:36:16.225Z,0.70
2022-10-15T02:38:45.951Z,0.70
2022-10-15T02:41:14.628Z,0.73
2022-10-15T02:43:42.768Z,0.73
2022-10-15T02:46:14.067Z,0.70
2022-10-15T02:48:45.108Z,0.70
2022-10-15T02:51:16.596Z,0.77
2022-10-15T02:53:44.620Z,2.00
2022-10-15T02:56:12.734Z,1.10
2022-10-15T02:58:40.864Z,0.60
2022-10-15T03:01:09.410Z,0.63
2022-10-15T03:03:37.698Z,0.70
2022-10-15T03:06:08.004Z,0.70
2022-10-15T03:08:36.106Z,0.73
2022-10-15T03:11:05.572Z,0.80
2022-10-15T03:13:36.825Z,0.60
2022-10-15T03:16:06.663Z,0.60
2022-10-15T03:18:38.161Z,0.60
2022-10-15T03:21:20.696Z,0.70
2022-10-15T03:23:49.000Z,0.60
2022-10-15T03:26:21.273Z,0.70
2022-10-15T03:28:50.443Z,0.63
2022-10-15T03:31:31.937Z,1.37
2022-10-15T03:34:03.201Z,0.70
2022-10-15T03:36:33.383Z,0.70
2022-10-15T03:39:02.219Z,1.83
2022-10-15T03:41:54.985Z,0.70
2022-10-15T03:44:30.199Z,1.30
2022-10-15T03:47:08.135Z,0.60
2022-10-15T03:49:47.512Z,0.60
2022-10-15T03:52:17.728Z,0.80
2022-10-15T03:54:47.551Z,0.80
2022-10-15T03:57:18.479Z,0.60
2022-10-15T03:59:51.485Z,0.60
2022-10-15T04:02:22.121Z,0.73
2022-10-15T04:04:52.643Z,0.63
2022-10-15T04:07:22.268Z,0.60
2022-10-15T04:09:50.586Z,0.67
2022-10-15T04:12:25.180Z,0.70
2022-10-15T04:14:53.621Z,0.80
2022-10-15T04:17:21.722Z,0.60
2022-10-15T04:19:50.767Z,0.73
2022-10-15T04:22:18.881Z,0.63
2022-10-15T04:24:54.989Z,0.60
2022-10-15T04:27:29.980Z,0.70
2022-10-15T04:30:08.619Z,0.70
2022-10-15T04:32:39.549Z,1.63
2022-10-15T04:35:08.324Z,0.70
2022-10-15T04:38:02.268Z,0.97
2022-10-15T04:40:51.587Z,0.60
2022-10-15T04:43:19.595Z,0.60
2022-10-15T04:45:49.216Z,0.63
2022-10-15T04:48:20.425Z,0.70
2022-10-15T04:50:48.456Z,0.53
2022-10-15T04:53:20.111Z,0.60
2022-10-15T04:55:53.645Z,0.80
2022-10-15T04:58:21.952Z,0.63
2022-10-15T05:00:50.108Z,0.60
2022-10-15T05:06:07.100Z,0.60
2022-10-15T05:08:36.172Z,0.83
2022-10-15T05:11:20.634Z,0.60
2022-10-15T05:13:49.276Z,0.80
2022-10-15T05:16:18.753Z,0.60
2022-10-15T05:18:49.207Z,0.70
2022-10-15T05:21:21.234Z,0.60
2022-10-15T05:23:52.787Z,0.77
2022-10-15T05:26:40.764Z,1.43
2022-10-15T05:29:10.300Z,0.57
2022-10-15T05:31:39.420Z,0.60
2022-10-15T05:34:18.537Z,0.60
2022-10-15T05:36:58.214Z,0.50
2022-10-15T05:39:26.191Z,0.50
2022-10-15T05:41:56.997Z,0.60
2022-10-15T05:44:35.853Z,0.70
2022-10-15T05:47:03.872Z,0.70
2022-10-15T05:49:32.473Z,0.70
2022-10-15T05:52:10.598Z,0.60
2022-10-15T05:55:04.203Z,0.70
2022-10-15T05:57:33.538Z,0.60
2022-10-15T06:00:05.962Z,0.70
2022-10-15T06:02:40.356Z,0.80
2022-10-15T06:05:08.898Z,0.50
2022-10-15T06:07:36.876Z,0.60
2022-10-15T06:10:06.950Z,0.70
2022-10-15T06:12:38.360Z,0.53
2022-10-15T06:15:07.329Z,0.93
2022-10-15T06:17:35.429Z,0.83
2022-10-15T06:20:03.450Z,0.60
2022-10-15T06:22:32.063Z,1.10
2022-10-15T06:25:00.129Z,0.60
2022-10-15T06:27:29.365Z,0.50
2022-10-15T06:29:58.715Z,0.50
2022-10-15T06:32:26.729Z,0.83
2022-10-15T06:34:54.888Z,0.83
2022-10-15T06:37:23.227Z,0.60
2022-10-15T06:39:52.319Z,0.50
2022-10-15T06:42:20.330Z,0.60
2022-10-15T06:44:49.203Z,1.43
2022-10-15T06:47:19.631Z,0.50
2022-10-15T06:49:48.536Z,0.60
2022-10-15T06:52:16.588Z,0.70
2022-10-15T06:54:44.657Z,0.60
2022-10-15T06:57:12.762Z,0.50
2022-10-15T06:59:41.574Z,1.00
2022-10-15T07:02:10.281Z,0.60
2022-10-15T07:04:39.717Z,0.60
2022-10-15T07:07:07.691Z,0.60
2022-10-15T07:09:36.747Z,0.60
2022-10-15T07:12:05.357Z,0.60
2022-10-15T07:14:34.346Z,0.57
2022-10-15T07:17:04.874Z,0.60
2022-10-15T07:19:32.958Z,0.60
2022-10-15T07:22:02.390Z,0.50
2022-10-15T07:24:30.529Z,1.17
2022-10-15T07:26:58.545Z,0.50
2022-10-15T07:29:26.535Z,0.60
2022-10-15T07:31:54.814Z,0.60
2022-10-15T07:34:23.004Z,0.60
2022-10-15T07:36:51.028Z,0.70
2022-10-15T07:39:20.477Z,0.60
2022-10-15T07:41:48.463Z,0.80
2022-10-15T07:44:16.662Z,0.60
2022-10-15T07:46:44.711Z,0.50
2022-10-15T07:49:12.819Z,0.80
2022-10-15T07:51:40.893Z,0.50
2022-10-15T07:54:08.892Z,0.77
2022-10-15T07:56:38.240Z,0.60
2022-10-15T07:59:06.201Z,0.60
2022-10-15T08:01:34.221Z,0.50
2022-10-15T08:04:02.282Z,0.60
2022-10-15T08:06:30.281Z,0.60
2022-10-15T08:08:58.374Z,0.60
2022-10-15T08:11:29.976Z,0.60
2022-10-15T08:13:59.684Z,0.60
2022-10-15T08:16:27.770Z,0.60
2022-10-15T08:19:01.990Z,0.60
2022-10-15T08:21:30.147Z,0.50
2022-10-15T08:23:58.194Z,0.60
2022-10-15T08:26:34.593Z,0.60
2022-10-15T08:29:04.165Z,0.60
2022-10-15T08:31:32.731Z,0.50
2022-10-15T08:34:01.262Z,0.50
2022-10-15T08:36:29.866Z,0.60
2022-10-15T08:38:57.884Z,1.57
2022-10-15T08:41:31.142Z,0.60
2022-10-15T08:43:59.822Z,0.57
2022-10-15T08:46:36.448Z,0.60
2022-10-15T08:49:04.834Z,0.50
2022-10-15T08:51:38.726Z,0.60
2022-10-15T08:54:07.659Z,0.60
2022-10-15T08:56:39.266Z,0.80
2022-10-15T08:59:16.401Z,0.50
2022-10-15T09:01:49.373Z,0.70
2022-10-15T09:07:05.563Z,0.50
2022-10-15T09:09:38.731Z,0.60
2022-10-15T09:12:15.413Z,1.90
2022-10-15T09:14:45.010Z,0.50
2022-10-15T09:17:22.849Z,0.60
2022-10-15T09:19:56.171Z,0.50
2022-10-15T09:22:26.114Z,0.60
2022-10-15T09:24:54.620Z,0.93
2022-10-15T09:27:30.284Z,1.13
2022-10-15T09:30:05.348Z,0.60
2022-10-15T09:32:37.821Z,0.60
2022-10-15T09:35:15.186Z,0.60
2022-10-15T09:37:49.991Z,0.90
2022-10-15T09:40:28.450Z,0.60
2022-10-15T09:42:57.659Z,0.60
2022-10-15T09:45:25.797Z,0.60
2022-10-15T09:48:00.243Z,0.73
2022-10-15T09:50:32.381Z,0.60
2022-10-15T09:53:06.845Z,0.73
2022-10-15T09:55:42.159Z,0.60
2022-10-15T09:58:14.381Z,0.60
2022-10-15T10:00:58.874Z,0.50
2022-10-15T10:03:34.165Z,0.60
2022-10-15T10:06:04.590Z,0.60
2022-10-15T10:08:40.131Z,0.60
2022-10-15T10:11:09.931Z,0.60
2022-10-15T10:13:41.686Z,0.50
2022-10-15T10:16:11.178Z,0.50
2022-10-15T10:18:41.871Z,0.50
2022-10-15T10:21:24.187Z,1.03
2022-10-15T10:23:52.232Z,0.60
2022-10-15T10:26:21.853Z,0.50
2022-10-15T10:28:57.046Z,0.50
2022-10-15T10:31:40.032Z,0.50
2022-10-15T10:34:15.984Z,0.50
2022-10-15T10:36:50.067Z,0.50
2022-10-15T10:39:26.558Z,0.50
2022-10-15T10:41:56.150Z,0.60
2022-10-15T10:44:29.136Z,0.50
2022-10-15T10:47:11.721Z,0.60
2022-10-15T10:49:42.884Z,0.70
2022-10-15T10:52:28.081Z,0.50
2022-10-15T10:55:01.335Z,0.50
2022-10-15T10:57:40.737Z,0.50
2022-10-15T11:00:12.525Z,0.70
2022-10-15T11:02:43.895Z,0.60
2022-10-15T11:05:14.109Z,0.60
2022-10-15T11:07:48.599Z,0.60
2022-10-15T11:10:20.990Z,0.57
2022-10-15T11:13:06.508Z,0.50
2022-10-15T11:15:44.599Z,0.50
2022-10-15T11:18:26.278Z,0.60
2022-10-15T11:21:03.143Z,0.60
2022-10-15T11:23:48.438Z,0.50
2022-10-15T11:26:37.105Z,0.60
2022-10-15T11:29:12.280Z,0.97
2022-10-15T11:32:01.674Z,0.50
2022-10-15T11:34:40.695Z,0.60
2022-10-15T11:37:20.264Z,0.70
2022-10-15T11:39:59.048Z,0.50
2022-10-15T11:42:33.960Z,0.60
2022-10-15T11:45:11.883Z,0.60
2022-10-15T11:47:49.086Z,0.50
2022-10-15T11:50:31.914Z,0.60
2022-10-15T11:53:17.148Z,0.50
2022-10-15T11:55:52.029Z,0.60
2022-10-15T11:58:25.320Z,0.63
2022-10-15T12:00:57.068Z,0.60
2022-10-15T12:03:27.199Z,0.60
2022-10-15T12:06:00.122Z,0.60
2022-10-15T12:08:36.402Z,0.60
2022-10-15T12:11:13.352Z,0.50
2022-10-15T12:13:46.241Z,0.77
2022-10-15T12:16:20.638Z,0.80
2022-10-15T12:18:52.455Z,0.53
2022-10-15T12:21:35.770Z,0.70
2022-10-15T12:24:10.585Z,0.60
2022-10-15T12:26:38.816Z,0.60
2022-10-15T12:29:17.829Z,0.70
2022-10-15T12:31:48.688Z,0.67
2022-10-15T12:34:32.244Z,0.70
2022-10-15T12:37:05.332Z,0.60
2022-10-15T12:42:28.257Z,0.60
2022-10-15T12:44:57.179Z,0.60
2022-10-15T12:47:47.427Z,0.50
2022-10-15T12:50:19.973Z,0.60
2022-10-15T12:52:57.332Z,0.60
2022-10-15T12:55:36.918Z,0.50
2022-10-15T12:58:07.505Z,0.90
2022-10-15T13:00:43.560Z,0.50
2022-10-15T13:03:34.465Z,0.60
2022-10-15T13:06:16.537Z,0.70
2022-10-15T13:08:45.960Z,1.23
2022-10-15T13:11:41.999Z,2.20
2022-10-15T13:14:19.132Z,0.80
2022-10-15T13:16:48.696Z,0.50
2022-10-15T13:19:20.476Z,0.60
2022-10-15T13:21:50.988Z,0.60
2022-10-15T13:24:20.340Z,2.07
2022-10-15T13:26:50.179Z,0.60
2022-10-15T13:29:19.390Z,0.70
2022-10-15T13:31:48.223Z,0.60
2022-10-15T13:34:26.986Z,0.97
2022-10-15T13:36:56.007Z,0.60
2022-10-15T13:39:31.984Z,0.70
2022-10-15T13:42:16.133Z,0.77
2022-10-15T13:44:45.621Z,0.67
2022-10-15T13:47:31.797Z,0.70
2022-10-15T13:50:12.993Z,0.90
2022-10-15T13:52:42.362Z,0.57
2022-10-15T13:55:19.492Z,0.60
2022-10-15T13:57:50.446Z,0.60
2022-10-15T14:00:24.598Z,0.60
2022-10-15T14:03:09.006Z,0.60
2022-10-15T14:05:37.122Z,1.73
2022-10-15T14:08:05.528Z,1.07
2022-10-15T14:10:33.624Z,0.60
2022-10-15T14:13:02.996Z,0.70
2022-10-15T14:15:45.405Z,0.60
2022-10-15T14:18:15.215Z,0.60
2022-10-15T14:20:47.111Z,0.60
2022-10-15T14:23:22.166Z,0.60
2022-10-15T14:25:54.836Z,0.60
2022-10-15T14:28:25.047Z,0.70
2022-10-15T14:30:53.642Z,1.00
2022-10-15T14:33:33.269Z,0.73
2022-10-15T14:36:10.797Z,0.70
2022-10-15T14:38:39.083Z,0.60
2022-10-15T14:41:22.637Z,0.80
2022-10-15T14:44:17.914Z,0.70
2022-10-15T14:46:48.925Z,0.67
2022-10-15T14:49:28.006Z,0.80
2022-10-15T14:51:58.188Z,0.50
2022-10-15T14:54:31.162Z,0.60
2022-10-15T14:56:59.276Z,1.13
2022-10-15T14:59:33.132Z,0.60
2022-10-15T15:02:03.342Z,0.60
2022-10-15T15:04:42.962Z,0.80
2022-10-15T15:07:15.832Z,0.57
2022-10-15T15:09:43.933Z,0.60
2022-10-15T15:12:16.969Z,0.60
2022-10-15T15:14:46.548Z,0.70
2022-10-15T15:17:17.244Z,0.60
2022-10-15T15:19:45.337Z,0.70
2022-10-15T15:22:15.641Z,0.60
2022-10-15T15:24:43.805Z,0.70
2022-10-15T15:27:22.755Z,0.70
2022-10-15T15:29:52.835Z,1.43
2022-10-15T15:32:21.785Z,0.80
2022-10-15T15:34:50.633Z,0.70
2022-10-15T15:37:20.495Z,0.50
2022-10-15T15:39:48.547Z,0.60
2022-10-15T15:42:18.039Z,3.17
2022-10-15T15:44:46.360Z,1.30
2022-10-15T15:47:15.921Z,0.80
2022-10-15T15:49:44.214Z,0.97
2022-10-15T15:52:14.051Z,0.60
2022-10-15T15:54:42.116Z,2.13
2022-10-15T15:57:10.381Z,0.60
2022-10-15T16:00:03.225Z,0.60
2022-10-15T16:02:34.521Z,0.60
2022-10-15T16:05:02.830Z,0.60
2022-10-15T16:07:31.278Z,0.70
2022-10-15T16:09:59.441Z,0.90
2022-10-15T16:12:27.485Z,0.60
2022-10-15T16:14:55.788Z,0.60
2022-10-15T16:17:24.783Z,0.87
2022-10-15T16:19:54.526Z,1.37
2022-10-15T16:22:22.669Z,0.60
2022-10-15T16:24:50.809Z,1.53
2022-10-15T16:27:18.850Z,0.77
2022-10-15T16:29:46.900Z,1.00
2022-10-15T16:32:15.123Z,1.00
2022-10-15T16:34:43.119Z,0.70
2022-10-15T16:37:12.567Z,0.70
2022-10-15T16:39:40.691Z,1.30
2022-10-15T16:42:09.375Z,2.90
2022-10-15T16:44:37.477Z,1.70
2022-10-15T16:47:05.556Z,1.30
2022-10-15T16:49:33.602Z,1.43
2022-10-15T16:52:01.666Z,1.10
2022-10-15T16:54:31.048Z,1.20
2022-10-15T16:57:00.183Z,1.67
2022-10-15T16:59:28.481Z,1.53
2022-10-15T17:01:56.715Z,2.23
2022-10-15T17:04:24.732Z,1.87
2022-10-15T17:06:52.725Z,3.03
2022-10-15T17:09:21.077Z,2.60
2022-10-15T17:11:50.876Z,3.70
2022-10-15T17:14:19.334Z,3.00
2022-10-15T17:16:48.557Z,3.67
2022-10-15T17:19:18.698Z,4.90
2022-10-15T17:22:35.959Z,4.23
2022-10-15T17:25:04.212Z,1.40
2022-10-15T17:27:35.664Z,1.63
2022-10-15T17:30:03.746Z,3.57
2022-10-15T17:32:31.759Z,2.00
2022-10-15T17:35:03.845Z,1.10
2022-10-15T17:37:32.444Z,2.00
2022-10-15T17:40:00.722Z,1.77
2022-10-15T17:42:28.904Z,0.97
2022-10-15T17:44:58.319Z,1.10
2022-10-15T17:47:26.584Z,1.10
2022-10-15T17:49:54.979Z,1.13
2022-10-15T17:52:22.965Z,1.30
2022-10-15T17:54:51.625Z,0.90
2022-10-15T17:57:19.617Z,1.27
2022-10-15T17:59:50.428Z,1.97
2022-10-15T18:02:20.761Z,1.77
2022-10-15T18:04:49.275Z,1.47
2022-10-15T18:07:19.777Z,1.30
2022-10-15T18:09:47.764Z,3.10
2022-10-15T18:12:15.730Z,2.90
2022-10-15T18:14:43.751Z,3.13
2022-10-15T18:17:12.063Z,3.27
2022-10-15T18:19:41.522Z,1.40
2022-10-15T18:22:09.495Z,1.20
2022-10-15T18:24:37.560Z,1.43
2022-10-15T18:27:05.871Z,1.47
2022-10-15T18:29:34.767Z,2.40
2022-10-15T18:32:02.937Z,1.20
2022-10-15T18:34:33.287Z,1.23
2022-10-15T18:37:02.670Z,1.53
2022-10-15T18:39:30.674Z,1.13
2022-10-15T18:41:58.732Z,2.10
2022-10-15T18:44:28.649Z,2.73
2022-10-15T18:46:56.667Z,0.97
2022-10-15T18:49:24.695Z,1.90
2022-10-15T18:51:54.083Z,1.43
2022-10-15T18:54:24.017Z,1.93
2022-10-15T18:56:53.046Z,1.63
2022-10-15T18:59:21.867Z,0.90
2022-10-15T19:01:50.839Z,1.40
2022-10-15T19:04:19.829Z,1.40
2022-10-15T19:06:49.609Z,1.43
2022-10-15T19:09:19.503Z,1.43
2022-10-15T19:11:50.600Z,1.30
2022-10-15T19:14:18.862Z,3.33
2022-10-15T19:16:47.970Z,1.93
2022-10-15T19:19:17.550Z,2.30
2022-10-15T19:21:46.007Z,1.70
2022-10-15T19:24:15.411Z,1.50
2022-10-15T19:26:43.765Z,3.23
2022-10-15T19:29:13.197Z,2.20
2022-10-15T19:31:42.963Z,1.57
2022-10-15T19:34:11.390Z,1.53
2022-10-15T19:36:41.581Z,1.77
2022-10-15T19:39:12.713Z,2.87
2022-10-15T19:41:42.347Z,1.30
2022-10-15T19:44:13.382Z,1.53
2022-10-15T19:46:41.832Z,1.60
2022-10-15T19:49:12.290Z,1.37
2022-10-15T19:51:40.279Z,1.27
2022-10-15T19:54:08.434Z,1.40
2022-10-15T19:56:36.520Z,2.23
2022-10-15T19:59:06.022Z,1.40
2022-10-15T20:01:35.534Z,1.90
2022-10-15T20:04:06.464Z,1.33
2022-10-15T20:06:35.625Z,1.83
2022-10-15T20:09:03.970Z,3.40
2022-10-15T20:11:32.304Z,1.10
2022-10-15T20:14:00.471Z,1.50
2022-10-15T20:16:32.485Z,1.63
2022-10-15T20:19:03.488Z,3.20
2022-10-15T20:21:32.122Z,1.73
2022-10-15T20:24:03.844Z,1.63
2022-10-15T20:26:31.902Z,1.53
2022-10-15T20:29:00.047Z,2.37
2022-10-15T20:31:32.774Z,1.20
2022-10-15T20:34:03.199Z,2.10
2022-10-15T20:36:31.280Z,3.13
2022-10-15T20:39:00.658Z,1.70
2022-10-15T20:41:28.823Z,1.23
2022-10-15T20:43:57.260Z,1.43
2022-10-15T20:46:28.348Z,5.37
2022-10-15T20:48:57.388Z,3.20
2022-10-15T20:51:28.604Z,3.30
2022-10-15T20:53:57.136Z,2.93
2022-10-15T20:56:25.311Z,2.33
2022-10-15T20:58:53.426Z,1.90
2022-10-15T21:01:21.609Z,3.10
2022-10-15T21:03:49.662Z,2.30
2022-10-15T21:06:17.728Z,3.60
2022-10-15T21:08:47.119Z,1.90
2022-10-15T21:11:15.334Z,1.93
2022-10-15T21:13:43.422Z,2.10
2022-10-15T21:16:11.780Z,3.07
2022-10-15T21:18:39.845Z,1.70
2022-10-15T21:21:09.636Z,3.07
2022-10-15T21:23:38.658Z,2.10
2022-10-15T21:26:09.281Z,2.40
2022-10-15T21:28:37.695Z,1.33
2022-10-15T21:31:06.436Z,1.57
2022-10-15T21:33:36.010Z,2.17
2022-10-15T21:36:11.764Z,1.60
2022-10-15T21:38:39.749Z,1.60
2022-10-15T21:41:09.412Z,1.10
2022-10-15T21:43:37.459Z,1.53
2022-10-15T21:46:07.527Z,1.40
2022-10-15T21:48:36.695Z,2.63
2022-10-15T21:51:04.852Z,1.60
2022-10-15T21:53:33.990Z,1.77
2022-10-15T21:56:02.365Z,2.97
2022-10-15T21:58:31.804Z,1.70
2022-10-15T22:01:08.444Z,2.67
2022-10-15T22:03:36.562Z,2.17
2022-10-15T22:06:05.171Z,1.93
2022-10-15T22:08:33.552Z,1.90
2022-10-15T22:11:12.007Z,2.93
2022-10-15T22:13:42.801Z,5.80
2022-10-15T22:16:11.288Z,2.50
2022-10-15T22:18:40.747Z,2.30
2022-10-15T22:21:15.036Z,2.40
2022-10-15T22:23:44.212Z,2.10
2022-10-15T22:26:12.540Z,1.77
2022-10-15T22:28:42.288Z,1.63
2022-10-15T22:31:12.664Z,4.50
2022-10-15T22:33:41.699Z,4.47
2022-10-15T22:36:14.999Z,1.67
2022-10-15T22:38:45.055Z,1.30
2022-10-15T22:41:13.582Z,1.77
2022-10-15T22:43:43.214Z,2.17
2022-10-15T22:46:11.761Z,1.47
2022-10-15T22:48:41.221Z,4.40
2022-10-15T22:51:11.057Z,1.10
2022-10-15T22:53:39.409Z,1.30
2022-10-15T22:56:09.060Z,0.80
2022-10-15T22:58:37.670Z,1.43
2022-10-15T23:01:12.089Z,1.00
2022-10-15T23:03:40.606Z,1.27
2022-10-15T23:06:08.763Z,1.63
2022-10-15T23:08:37.243Z,2.40
2022-10-15T23:11:09.995Z,1.13
2022-10-15T23:13:38.722Z,1.97
2022-10-15T23:16:14.748Z,1.87
2022-10-15T23:18:44.600Z,1.60
2022-10-15T23:21:14.917Z,1.20
2022-10-15T23:24:08.000Z,1.30
2022-10-15T23:26:36.639Z,1.87
2022-10-15T23:29:06.425Z,4.20
2022-10-15T23:31:36.898Z,1.77
2022-10-15T23:34:06.623Z,1.83
2022-10-15T23:36:35.251Z,1.73
2022-10-15T23:39:05.505Z,1.80
2022-10-15T23:41:34.011Z,1.67
2022-10-15T23:44:02.019Z,1.30
2022-10-15T23:46:30.057Z,1.70
2022-10-15T23:48:59.409Z,3.20
2022-10-15T23:51:28.970Z,1.57
2022-10-15T23:53:59.544Z,1.80
2022-10-15T23:56:27.960Z,1.93
2022-10-15T23:58:58.296Z,2.97
